Time;durP1;ratioP1;P1;durP2;ratioP2;P2;SDS_P1;SDS_P2;PMS_P1;PMS_P2;Temp;Humidity;BMP_temperature;BMP_pressure;BME280_temperature;BME280_humidity;BME280_pressure;Samples;Min_cycle;Max_cycle;Signal;HPM_P1;HPM_P2
2022/11/09 00:00:47;;;;;;;;;;;;;;;18.13;68.75;99162.25;2108617;28;19966;-50
2022/11/09 00:01:50;;;;;;;;;;;;;;;18.14;68.97;99158.56;2108275;28;20278;-48
2022/11/09 00:02:53;;;;;;;;;;;;;;;18.14;68.81;99169.28;2108585;28;20569;-49
2022/11/09 00:03:56;;;;;;;;;;;;;;;18.14;68.73;99163.94;2106986;28;20108;-49
2022/11/09 00:04:56;;;;;;;;;;;;;;;18.13;68.96;99165.75;2102612;28;19920;-50
2022/11/09 00:05:58;;;;;;;;;;;;;;;18.12;68.67;99163.28;2106066;28;19930;-49
2022/11/09 00:07:00;;;;;;;;;;;;;;;18.12;68.95;99164.09;2106216;28;19920;-49
2022/11/09 00:08:03;;;;;;;;;;;;;;;18.12;68.74;99165.97;2109838;28;19975;-50
2022/11/09 00:09:06;;;;;;;;;;;;;;;18.12;68.90;99163.28;2106707;28;19927;-49
2022/11/09 00:10:07;;;;;;;;;;;;;;;18.12;68.90;99163.28;2102999;28;19928;-51
2022/11/09 00:11:09;;;;;;;;;;;;;;;18.13;68.55;99164.94;2107089;28;21454;-47
2022/11/09 00:12:10;;;;;;;;;;;;;;;18.14;68.72;99161.25;2109207;28;19930;-48
2022/11/09 00:13:11;;;;;;;;;;;;;;;18.15;68.54;99165.59;2109357;28;19920;-49
2022/11/09 00:14:13;;;;;;;;;;;;;;;18.12;68.79;99158.72;2109377;28;19924;-50
2022/11/09 00:15:14;;;;;;;;;;;;;;;18.12;68.91;99160.59;2108750;28;19974;-49
2022/11/09 00:16:17;;;;;;;;;;;;;;;18.12;68.85;99160.59;2108216;28;19930;-48
2022/11/09 00:17:20;;;;;;;;;;;;;;;18.11;68.64;99158.91;2107802;28;20374;-49
2022/11/09 00:18:21;;;;;;;;;;;;;;;18.12;68.68;99152.53;2107842;28;20550;-49
2022/11/09 00:19:22;;;;;;;;;;;;;;;18.12;68.73;99161.41;2106060;28;19924;-48
2022/11/09 00:20:23;;;;;;;;;;;;;;;18.12;68.71;99158.72;2106642;28;19924;-49
2022/11/09 00:21:25;;;;;;;;;;;;;;;18.11;68.70;99159.75;2100874;28;19927;-50
2022/11/09 00:22:25;;;;;;;;;;;;;;;18.11;68.82;99156.22;2104537;27;20554;-48
2022/11/09 00:23:27;;;;;;;;;;;;;;;18.11;68.59;99161.59;2108917;28;19926;-50
2022/11/09 00:24:27;;;;;;;;;;;;;;;18.12;68.50;99163.28;2107888;27;20409;-50
2022/11/09 00:25:30;;;;;;;;;;;;;;;18.11;68.67;99159.75;2108666;28;19930;-48
2022/11/09 00:26:32;;;;;;;;;;;;;;;18.11;68.47;99162.44;2106983;28;19924;-48
2022/11/09 00:27:32;;;;;;;;;;;;;;;18.12;68.42;99155.22;2108372;28;19923;-51
2022/11/09 00:28:34;;;;;;;;;;;;;;;18.12;68.50;99153.38;2109036;28;19953;-50
2022/11/09 00:29:36;;;;;;;;;;;;;;;18.12;68.52;99156.03;2107439;28;19935;-47
2022/11/09 00:30:36;;;;;;;;;;;;;;;18.11;68.52;99151.72;2107960;28;19932;-50
2022/11/09 00:31:38;;;;;;;;;;;;;;;18.12;68.43;99155.22;2105966;28;19924;-48
2022/11/09 00:32:40;;;;;;;;;;;;;;;18.12;68.66;99155.22;2108047;27;20414;-49
2022/11/09 00:33:42;;;;;;;;;;;;;;;18.11;68.71;99150.84;2108190;28;19970;-48
2022/11/09 00:34:43;;;;;;;;;;;;;;;18.12;68.53;99163.28;2102731;28;19924;-50
2022/11/09 00:35:44;;;;;;;;;;;;;;;18.12;68.45;99163.28;2107102;28;19919;-47
2022/11/09 00:36:44;;;;;;;;;;;;;;;18.11;68.41;99159.75;2108940;28;20623;-48
2022/11/09 00:37:46;;;;;;;;;;;;;;;18.11;68.40;99165.13;2108696;28;19920;-51
2022/11/09 00:38:48;;;;;;;;;;;;;;;18.11;68.59;99156.22;2103097;28;19926;-49
2022/11/09 00:39:49;;;;;;;;;;;;;;;18.09;68.54;99154.56;2106485;28;19926;-51
2022/11/09 00:40:50;;;;;;;;;;;;;;;18.10;68.58;99166.13;2106968;28;20424;-48
2022/11/09 00:41:51;;;;;;;;;;;;;;;18.11;68.61;99161.59;2108661;28;19923;-49
2022/11/09 00:42:52;;;;;;;;;;;;;;;18.10;68.66;99160.75;2108774;28;19920;-49
2022/11/09 00:43:54;;;;;;;;;;;;;;;18.09;68.49;99159.94;2104596;28;19919;-48
2022/11/09 00:44:54;;;;;;;;;;;;;;;18.11;68.54;99164.28;2105254;28;20535;-48
2022/11/09 00:45:56;;;;;;;;;;;;;;;18.09;68.41;99165.31;2105280;28;19935;-50
2022/11/09 00:46:56;;;;;;;;;;;;;;;18.08;68.63;99158.28;2107604;28;19920;-49
2022/11/09 00:47:59;;;;;;;;;;;;;;;18.11;68.46;99167.81;2101136;28;20294;-55
2022/11/09 00:49:00;;;;;;;;;;;;;;;18.11;68.34;99156.22;2104544;28;19919;-48
2022/11/09 00:50:01;;;;;;;;;;;;;;;18.10;68.52;99166.13;2102432;28;19924;-54
2022/11/09 00:51:02;;;;;;;;;;;;;;;18.09;68.60;99164.47;2108365;28;19926;-47
2022/11/09 00:52:04;;;;;;;;;;;;;;;18.09;68.51;99167.16;2107423;28;19930;-49
2022/11/09 00:53:04;;;;;;;;;;;;;;;18.09;68.33;99168.00;2104993;28;19927;-53
2022/11/09 00:54:07;;;;;;;;;;;;;;;18.09;68.35;99170.69;2107380;28;19924;-48
2022/11/09 00:55:07;;;;;;;;;;;;;;;18.09;68.53;99170.69;2108774;28;19949;-54
2022/11/09 00:56:11;;;;;;;;;;;;;;;18.11;68.47;99172.31;2104181;28;19919;-50
2022/11/09 00:57:12;;;;;;;;;;;;;;;18.08;68.65;99174.38;2104731;28;19924;-51
2022/11/09 00:58:13;;;;;;;;;;;;;;;18.11;68.30;99172.31;2108708;28;19924;-50
2022/11/09 00:59:14;;;;;;;;;;;;;;;18.09;68.47;99176.03;2106767;28;19919;-51
2022/11/09 01:00:17;;;;;;;;;;;;;;;18.08;68.55;99170.88;2107525;28;19924;-50
2022/11/09 01:01:17;;;;;;;;;;;;;;;18.08;68.16;99174.38;2109162;28;19920;-51
2022/11/09 01:02:19;;;;;;;;;;;;;;;18.08;68.46;99169.03;2108842;28;19930;-52
2022/11/09 01:03:21;;;;;;;;;;;;;;;18.08;68.33;99171.72;2106034;28;19924;-51
2022/11/09 01:04:22;;;;;;;;;;;;;;;18.08;68.35;99166.34;2105976;28;19923;-52
2022/11/09 01:05:23;;;;;;;;;;;;;;;18.09;68.40;99168.00;2105385;28;19924;-50
2022/11/09 01:06:25;;;;;;;;;;;;;;;18.09;68.23;99164.47;2107157;28;19981;-48
2022/11/09 01:07:26;;;;;;;;;;;;;;;18.08;68.23;99169.03;2109013;28;19919;-52
2022/11/09 01:08:28;;;;;;;;;;;;;;;18.08;68.28;99165.50;2108595;28;20620;-50
2022/11/09 01:09:28;;;;;;;;;;;;;;;18.07;68.37;99169.19;2105205;28;19923;-53
2022/11/09 01:10:30;;;;;;;;;;;;;;;18.07;68.28;99172.72;2107002;28;19963;-50
2022/11/09 01:11:30;;;;;;;;;;;;;;;18.08;68.34;99173.56;2107997;28;20782;-50
2022/11/09 01:12:32;;;;;;;;;;;;;;;18.08;68.33;99169.03;2108332;28;19924;-52
2022/11/09 01:13:33;;;;;;;;;;;;;;;18.09;68.16;99172.53;2108152;28;19934;-54
2022/11/09 01:14:34;;;;;;;;;;;;;;;18.08;68.28;99177.06;2109316;28;20539;-48
2022/11/09 01:15:39;;;;;;;;;;;;;;;18.08;68.44;99168.19;2105329;28;19928;-54
2022/11/09 01:16:40;;;;;;;;;;;;;;;18.08;68.40;99178.94;2108209;28;19930;-50
2022/11/09 01:17:41;;;;;;;;;;;;;;;18.08;68.20;99174.38;2108189;28;19931;-52
2022/11/09 01:18:44;;;;;;;;;;;;;;;18.09;68.30;99172.53;2107235;28;19920;-51
2022/11/09 01:19:45;;;;;;;;;;;;;;;18.08;68.29;99176.25;2107625;28;19939;-51
2022/11/09 01:20:47;;;;;;;;;;;;;;;18.08;68.07;99171.72;2099556;28;19930;-49
2022/11/09 01:21:48;;;;;;;;;;;;;;;18.07;68.24;99171.88;2104489;28;19969;-49
2022/11/09 01:22:49;;;;;;;;;;;;;;;18.07;68.40;99178.06;2108024;28;20498;-50
2022/11/09 01:23:50;;;;;;;;;;;;;;;18.07;68.32;99171.88;2106536;28;19923;-49
2022/11/09 01:24:51;;;;;;;;;;;;;;;18.07;68.38;99167.34;2109837;28;19920;-54
2022/11/09 01:25:57;;;;;;;;;;;;;;;18.06;68.37;99168.38;2109055;28;20500;-52
2022/11/09 01:26:58;;;;;;;;;;;;;;;18.07;68.28;99175.38;2106856;28;19946;-52
2022/11/09 01:28:00;;;;;;;;;;;;;;;18.06;68.33;99168.38;2108115;28;20545;-50
2022/11/09 01:29:01;;;;;;;;;;;;;;;18.07;68.33;99166.50;2108167;28;20518;-53
2022/11/09 01:30:02;;;;;;;;;;;;;;;18.07;68.21;99167.34;2108543;28;20370;-52
2022/11/09 01:31:04;;;;;;;;;;;;;;;18.06;68.31;99171.06;2108142;28;19930;-53
2022/11/09 01:32:05;;;;;;;;;;;;;;;18.07;68.12;99166.50;2108176;28;19920;-49
2022/11/09 01:33:07;;;;;;;;;;;;;;;18.08;68.25;99163.66;2105629;28;19924;-50
2022/11/09 01:34:09;;;;;;;;;;;;;;;18.08;68.29;99162.81;2103854;28;19927;-49
2022/11/09 01:35:10;;;;;;;;;;;;;;;18.07;68.15;99161.97;2101842;28;19967;-51
2022/11/09 01:36:12;;;;;;;;;;;;;;;18.06;68.23;99160.31;2106566;28;19926;-49
2022/11/09 01:37:14;;;;;;;;;;;;;;;18.05;68.07;99153.28;2108500;28;19927;-51
2022/11/09 01:38:14;;;;;;;;;;;;;;;18.06;68.23;99157.63;2108986;28;19926;-52
2022/11/09 01:39:16;;;;;;;;;;;;;;;18.07;68.16;99161.97;2108086;28;19923;-50
2022/11/09 01:40:16;;;;;;;;;;;;;;;18.06;67.99;99163.00;2108814;28;20366;-52
2022/11/09 01:41:19;;;;;;;;;;;;;;;18.06;68.08;99160.31;2107271;28;19920;-54
2022/11/09 01:42:22;;;;;;;;;;;;;;;18.07;68.13;99169.19;2109228;28;21340;-49
2022/11/09 01:43:24;;;;;;;;;;;;;;;18.05;68.02;99164.03;2107761;28;20316;-50
2022/11/09 01:44:26;;;;;;;;;;;;;;;18.06;68.07;99165.69;2104611;27;19927;-54
2022/11/09 01:45:28;;;;;;;;;;;;;;;18.06;68.08;99164.84;2106211;28;19920;-51
2022/11/09 01:46:31;;;;;;;;;;;;;;;18.07;67.98;99158.47;2108145;28;19926;-54
2022/11/09 01:47:33;;;;;;;;;;;;;;;18.06;67.96;99165.69;2103451;28;19974;-49
2022/11/09 01:48:36;;;;;;;;;;;;;;;18.06;67.92;99165.69;2108150;28;19919;-52
2022/11/09 01:49:42;;;;;;;;;;;;;;;18.05;68.15;99157.81;2105842;28;20431;-53
2022/11/09 01:50:45;;;;;;;;;;;;;;;18.05;67.94;99161.34;2109411;28;19934;-53
2022/11/09 01:51:48;;;;;;;;;;;;;;;18.04;68.08;99150.78;2105542;28;20534;-51
2022/11/09 01:52:49;;;;;;;;;;;;;;;18.05;68.20;99152.44;2108779;28;19935;-49
2022/11/09 01:53:52;;;;;;;;;;;;;;;18.03;68.02;99149.97;2108585;28;19926;-52
2022/11/09 01:54:56;;;;;;;;;;;;;;;18.04;68.10;99159.66;2108316;28;19923;-48
2022/11/09 01:56:00;;;;;;;;;;;;;;;18.05;67.91;99147.06;2108033;28;20277;-49
2022/11/09 01:57:04;;;;;;;;;;;;;;;18.02;68.23;99153.63;2108658;28;19930;-51
2022/11/09 01:58:07;;;;;;;;;;;;;;;18.04;67.97;99153.47;2106236;28;20035;-49
2022/11/09 01:59:10;;;;;;;;;;;;;;;18.03;67.94;99149.97;2104099;28;19937;-49
2022/11/09 02:00:13;;;;;;;;;;;;;;;18.04;68.14;99150.78;2108135;28;20030;-50
2022/11/09 02:01:14;;;;;;;;;;;;;;;18.03;68.07;99149.13;2107831;28;19924;-50
2022/11/09 02:02:16;;;;;;;;;;;;;;;18.03;67.70;99149.97;2103947;27;20538;-51
2022/11/09 02:03:19;;;;;;;;;;;;;;;18.05;68.14;99149.75;2105362;28;19951;-52
2022/11/09 02:04:23;;;;;;;;;;;;;;;18.04;68.12;99148.09;2108434;28;20435;-49
2022/11/09 02:05:26;;;;;;;;;;;;;;;18.03;68.15;99147.28;2103494;28;19946;-51
2022/11/09 02:06:30;;;;;;;;;;;;;;;18.04;67.93;99145.41;2107221;28;19920;-54
2022/11/09 02:07:31;;;;;;;;;;;;;;;18.03;67.83;99146.44;2104275;28;19998;-52
2022/11/09 02:08:33;;;;;;;;;;;;;;;18.02;68.15;99140.22;2104533;28;20484;-50
2022/11/09 02:09:37;;;;;;;;;;;;;;;18.04;67.80;99142.72;2101947;28;19926;-53
2022/11/09 02:10:42;;;;;;;;;;;;;;;18.04;67.88;99143.56;2106678;28;19930;-46
2022/11/09 02:11:42;;;;;;;;;;;;;;;18.04;67.83;99146.25;2108080;28;19990;-50
2022/11/09 02:12:44;;;;;;;;;;;;;;;18.03;67.98;99147.28;2107352;27;20072;-50
2022/11/09 02:13:49;;;;;;;;;;;;;;;18.02;67.99;99145.59;2108947;27;19928;-54
2022/11/09 02:14:51;;;;;;;;;;;;;;;18.03;68.02;99149.97;2109510;28;19928;-48
2022/11/09 02:15:53;;;;;;;;;;;;;;;18.02;67.83;99145.59;2108138;28;19934;-49
2022/11/09 02:16:54;;;;;;;;;;;;;;;18.02;67.87;99140.22;2108295;27;19927;-54
2022/11/09 02:17:56;;;;;;;;;;;;;;;18.03;67.99;99144.59;2092017;28;19928;-51
2022/11/09 02:18:59;;;;;;;;;;;;;;;18.02;67.81;99137.53;2103572;28;20284;-49
2022/11/09 02:20:00;;;;;;;;;;;;;;;18.02;67.88;99140.22;2105113;28;19935;-47
2022/11/09 02:21:03;;;;;;;;;;;;;;;18.01;67.93;99138.56;2107567;28;19965;-53
2022/11/09 02:22:03;;;;;;;;;;;;;;;18.01;68.10;99135.06;2106634;28;19927;-53
2022/11/09 02:23:05;;;;;;;;;;;;;;;18.02;67.95;99136.72;2108177;28;19920;-50
2022/11/09 02:24:06;;;;;;;;;;;;;;;18.01;67.91;99138.56;2108774;28;19961;-50
2022/11/09 02:25:08;;;;;;;;;;;;;;;18.02;67.80;99136.72;2105528;28;19928;-48
2022/11/09 02:26:12;;;;;;;;;;;;;;;18.01;67.85;99133.19;2106801;28;19934;-51
2022/11/09 02:27:14;;;;;;;;;;;;;;;18.02;68.02;99126.78;2106672;28;21179;-51
2022/11/09 02:28:15;;;;;;;;;;;;;;;18.02;68.02;99132.16;2108208;28;19931;-52
2022/11/09 02:29:18;;;;;;;;;;;;;;;18.01;67.76;99135.06;2108365;28;19923;-54
2022/11/09 02:30:19;;;;;;;;;;;;;;;18.02;67.97;99131.34;2102486;28;19919;-51
2022/11/09 02:31:23;;;;;;;;;;;;;;;18.01;67.96;99127.00;2106069;28;19928;-52
2022/11/09 02:32:25;;;;;;;;;;;;;;;18.01;67.99;99129.69;2108289;28;20385;-52
2022/11/09 02:33:27;;;;;;;;;;;;;;;18.02;67.70;99131.34;2106016;28;19923;-54
2022/11/09 02:34:28;;;;;;;;;;;;;;;18.01;67.94;99124.31;2108612;28;19931;-50
2022/11/09 02:35:29;;;;;;;;;;;;;;;18.01;67.91;99127.81;2106931;28;20483;-54
2022/11/09 02:36:31;;;;;;;;;;;;;;;18.01;67.87;99124.31;2109665;28;19924;-48
2022/11/09 02:37:35;;;;;;;;;;;;;;;18.01;67.98;99127.00;2108455;28;20018;-51
2022/11/09 02:38:35;;;;;;;;;;;;;;;18.00;68.06;99122.66;2105342;28;19923;-54
2022/11/09 02:39:37;;;;;;;;;;;;;;;18.00;67.81;99126.19;2108282;28;19926;-49
2022/11/09 02:40:40;;;;;;;;;;;;;;;17.99;67.82;99126.34;2108442;28;19931;-48
2022/11/09 02:41:43;;;;;;;;;;;;;;;18.00;67.96;99126.19;2110459;27;19924;-51
2022/11/09 02:42:43;;;;;;;;;;;;;;;18.01;67.60;99127.00;2105996;28;19927;-56
2022/11/09 02:43:45;;;;;;;;;;;;;;;18.01;67.73;99130.50;2105041;27;20557;-54
2022/11/09 02:44:50;;;;;;;;;;;;;;;17.99;67.67;99127.19;2107806;28;19928;-47
2022/11/09 02:45:52;;;;;;;;;;;;;;;18.00;67.91;99128.03;2105071;28;20647;-47
2022/11/09 02:46:52;;;;;;;;;;;;;;;17.99;67.69;99127.19;2108586;28;19935;-49
2022/11/09 02:47:54;;;;;;;;;;;;;;;17.99;67.72;99127.19;2106410;28;19981;-53
2022/11/09 02:48:54;;;;;;;;;;;;;;;18.00;67.86;99130.72;2108754;28;19926;-48
2022/11/09 02:49:57;;;;;;;;;;;;;;;17.98;67.68;99130.88;2109762;28;19934;-48
2022/11/09 02:50:58;;;;;;;;;;;;;;;17.99;67.80;99127.19;2109212;28;19923;-51
2022/11/09 02:52:00;;;;;;;;;;;;;;;17.99;67.72;99129.03;2107458;28;20361;-51
2022/11/09 02:53:01;;;;;;;;;;;;;;;17.99;67.68;99132.53;2109290;28;19923;-50
2022/11/09 02:54:03;;;;;;;;;;;;;;;17.99;67.82;99135.22;2108397;28;19930;-53
2022/11/09 02:55:03;;;;;;;;;;;;;;;17.98;67.74;99133.56;2104163;28;19920;-53
2022/11/09 02:56:05;;;;;;;;;;;;;;;17.99;67.64;99129.84;2107296;28;20366;-51
2022/11/09 02:57:06;;;;;;;;;;;;;;;17.99;67.67;99135.22;2108951;28;20389;-50
2022/11/09 02:58:07;;;;;;;;;;;;;;;17.97;67.69;99131.91;2109520;27;19919;-54
2022/11/09 02:59:08;;;;;;;;;;;;;;;17.99;67.69;99137.09;2110133;28;19931;-48
2022/11/09 03:00:10;;;;;;;;;;;;;;;17.99;67.67;99135.22;2108731;27;20312;-52
2022/11/09 03:01:10;;;;;;;;;;;;;;;17.98;67.87;99136.25;2110415;28;19919;-50
2022/11/09 03:02:12;;;;;;;;;;;;;;;17.97;67.71;99137.28;2111582;28;19924;-48
2022/11/09 03:03:12;;;;;;;;;;;;;;;17.98;67.84;99136.25;2109214;28;19920;-51
2022/11/09 03:04:14;;;;;;;;;;;;;;;17.98;67.60;99127.38;2107747;28;19985;-50
2022/11/09 03:05:14;;;;;;;;;;;;;;;17.98;67.66;99140.81;2109317;28;19923;-52
2022/11/09 03:06:16;;;;;;;;;;;;;;;17.98;67.59;99130.88;2110421;28;19919;-54
2022/11/09 03:07:18;;;;;;;;;;;;;;;17.98;67.60;99143.47;2113279;28;20551;-50
2022/11/09 03:08:20;;;;;;;;;;;;;;;17.97;67.79;99137.28;2107636;28;20430;-54
2022/11/09 03:09:20;;;;;;;;;;;;;;;17.98;67.66;99149.69;2101026;28;19927;-51
2022/11/09 03:10:22;;;;;;;;;;;;;;;17.97;67.82;99145.34;2105559;28;20333;-53
2022/11/09 03:11:22;;;;;;;;;;;;;;;17.97;67.80;99145.34;2105381;28;19928;-53
2022/11/09 03:12:30;;;;;;;;;;;;;;;17.97;67.66;99148.03;2106200;28;20910;-52
2022/11/09 03:13:30;;;;;;;;;;;;;;;17.97;67.83;99145.34;2107955;28;19930;-50
2022/11/09 03:14:32;;;;;;;;;;;;;;;17.97;67.74;99139.97;2107612;28;19932;-50
2022/11/09 03:15:32;;;;;;;;;;;;;;;17.97;67.87;99144.47;2106569;28;21912;-50
2022/11/09 03:16:34;;;;;;;;;;;;;;;17.97;67.66;99150.72;2108431;28;19928;-51
2022/11/09 03:17:35;;;;;;;;;;;;;;;17.97;67.66;99148.03;2106209;27;19923;-52
2022/11/09 03:18:36;;;;;;;;;;;;;;;17.97;67.65;99149.84;2101599;28;19932;-54
2022/11/09 03:19:37;;;;;;;;;;;;;;;17.96;67.69;99146.34;2101417;28;19935;-54
2022/11/09 03:20:38;;;;;;;;;;;;;;;17.96;67.54;99149.03;2102841;28;19998;-52
2022/11/09 03:21:39;;;;;;;;;;;;;;;17.97;67.54;99150.72;2104743;28;19923;-54
2022/11/09 03:22:42;;;;;;;;;;;;;;;17.97;67.83;99155.22;2106491;28;19923;-54
2022/11/09 03:23:42;;;;;;;;;;;;;;;17.96;67.59;99149.03;2107273;28;19923;-52
2022/11/09 03:24:44;;;;;;;;;;;;;;;17.96;67.59;99143.66;2107469;28;19930;-51
2022/11/09 03:25:44;;;;;;;;;;;;;;;17.96;67.60;99148.19;2108408;28;19919;-50
2022/11/09 03:26:46;;;;;;;;;;;;;;;17.96;67.78;99142.84;2107168;27;20164;-54
2022/11/09 03:27:46;;;;;;;;;;;;;;;17.97;67.67;99149.84;2109757;28;19923;-50
2022/11/09 03:28:48;;;;;;;;;;;;;;;17.97;67.75;99148.03;2107614;28;19920;-48
2022/11/09 03:29:49;;;;;;;;;;;;;;;17.97;67.67;99141.81;2103106;28;19924;-50
2022/11/09 03:30:50;;;;;;;;;;;;;;;17.97;67.68;99147.16;2104624;28;20006;-52
2022/11/09 03:31:51;;;;;;;;;;;;;;;17.96;67.70;99142.84;2107921;28;19963;-54
2022/11/09 03:32:57;;;;;;;;;;;;;;;17.95;67.76;99150.06;2106048;28;19923;-52
2022/11/09 03:33:57;;;;;;;;;;;;;;;17.95;67.60;99143.84;2103752;28;19927;-49
2022/11/09 03:34:59;;;;;;;;;;;;;;;17.95;67.68;99147.38;2103020;27;19923;-53
2022/11/09 03:36:00;;;;;;;;;;;;;;;17.95;67.78;99146.53;2106732;28;19919;-51
2022/11/09 03:37:01;;;;;;;;;;;;;;;17.96;67.72;99148.19;2106334;28;19920;-55
2022/11/09 03:38:03;;;;;;;;;;;;;;;17.96;67.49;99150.88;2104806;28;19935;-54
2022/11/09 03:39:05;;;;;;;;;;;;;;;17.95;67.61;99151.91;2106848;28;19928;-49
2022/11/09 03:40:06;;;;;;;;;;;;;;;17.95;67.75;99146.53;2104256;28;23132;-54
2022/11/09 03:41:07;;;;;;;;;;;;;;;17.94;67.72;99145.72;2104698;27;19993;-50
2022/11/09 03:42:08;;;;;;;;;;;;;;;17.95;67.56;99152.75;2105879;28;19930;-51
2022/11/09 03:43:09;;;;;;;;;;;;;;;17.94;67.60;99148.41;2104716;28;19998;-50
2022/11/09 03:44:10;;;;;;;;;;;;;;;17.96;67.67;99148.19;2106323;28;19926;-50
2022/11/09 03:45:12;;;;;;;;;;;;;;;17.94;67.54;99151.09;2104481;28;19924;-52
2022/11/09 03:46:12;;;;;;;;;;;;;;;17.93;67.53;99152.09;2107145;28;20508;-52
2022/11/09 03:47:14;;;;;;;;;;;;;;;17.94;67.52;99152.91;2107020;28;19927;-53
2022/11/09 03:48:14;;;;;;;;;;;;;;;17.94;67.60;99148.41;2107016;28;19924;-52
2022/11/09 03:49:16;;;;;;;;;;;;;;;17.94;67.52;99145.72;2102923;28;20014;-52
2022/11/09 03:50:17;;;;;;;;;;;;;;;17.94;67.67;99148.41;2105557;28;19923;-49
2022/11/09 03:51:18;;;;;;;;;;;;;;;17.94;67.45;99150.22;2105216;28;20452;-52
2022/11/09 03:52:19;;;;;;;;;;;;;;;17.94;67.65;99153.78;2103767;28;19920;-52
2022/11/09 03:53:22;;;;;;;;;;;;;;;17.94;67.49;99147.53;2100588;28;19930;-52
2022/11/09 03:54:22;;;;;;;;;;;;;;;17.94;67.70;99156.44;2107296;28;19926;-52
2022/11/09 03:55:24;;;;;;;;;;;;;;;17.93;67.59;99151.25;2105514;28;20486;-50
2022/11/09 03:56:24;;;;;;;;;;;;;;;17.93;67.65;99149.41;2107181;28;20380;-51
2022/11/09 03:57:26;;;;;;;;;;;;;;;17.94;67.66;99155.59;2107619;28;19925;-50
2022/11/09 03:58:26;;;;;;;;;;;;;;;17.93;67.57;99146.72;2108168;28;19927;-52
2022/11/09 03:59:28;;;;;;;;;;;;;;;17.94;67.39;99151.09;2107701;28;19969;-51
2022/11/09 04:00:28;;;;;;;;;;;;;;;17.94;67.65;99151.09;2107817;28;20474;-51
2022/11/09 04:01:30;;;;;;;;;;;;;;;17.93;67.39;99148.56;2107922;28;20010;-53
2022/11/09 04:02:31;;;;;;;;;;;;;;;17.94;67.53;99145.72;2108017;28;19919;-52
2022/11/09 04:03:32;;;;;;;;;;;;;;;17.92;67.70;99142.38;2103321;28;19928;-51
2022/11/09 04:04:34;;;;;;;;;;;;;;;17.93;67.56;99148.56;2100629;28;20396;-52
2022/11/09 04:05:34;;;;;;;;;;;;;;;17.94;67.68;99148.41;2105476;28;19931;-50
2022/11/09 04:06:36;;;;;;;;;;;;;;;17.94;67.48;99139.50;2107261;28;20023;-50
2022/11/09 04:07:36;;;;;;;;;;;;;;;17.93;67.43;99138.66;2108317;28;19928;-48
2022/11/09 04:08:39;;;;;;;;;;;;;;;17.91;67.49;99143.38;2107906;28;20090;-50
2022/11/09 04:09:40;;;;;;;;;;;;;;;17.92;67.56;99142.38;2107265;28;20591;-51
2022/11/09 04:10:41;;;;;;;;;;;;;;;17.92;67.58;99137.00;2106467;28;19919;-52
2022/11/09 04:11:42;;;;;;;;;;;;;;;17.91;67.35;99129.97;2107609;28;19923;-52
2022/11/09 04:12:44;;;;;;;;;;;;;;;17.92;67.72;99133.50;2108776;27;19926;-49
2022/11/09 04:13:46;;;;;;;;;;;;;;;17.91;67.70;99129.97;2103317;28;19920;-47
2022/11/09 04:14:47;;;;;;;;;;;;;;;17.91;67.64;99134.50;2106654;28;20552;-52
2022/11/09 04:15:48;;;;;;;;;;;;;;;17.90;67.45;99128.31;2108386;28;19924;-53
2022/11/09 04:16:49;;;;;;;;;;;;;;;17.91;67.45;99135.31;2107307;28;19923;-52
2022/11/09 04:17:53;;;;;;;;;;;;;;;17.91;67.43;99134.50;2108229;28;19934;-51
2022/11/09 04:18:55;;;;;;;;;;;;;;;17.91;67.79;99134.50;2103381;28;19972;-53
2022/11/09 04:19:55;;;;;;;;;;;;;;;17.89;67.50;99132.03;2103478;28;19930;-54
2022/11/09 04:20:58;;;;;;;;;;;;;;;17.90;67.64;99133.69;2104281;28;19927;-52
2022/11/09 04:21:58;;;;;;;;;;;;;;;17.90;67.46;99138.22;2106803;28;20005;-52
2022/11/09 04:23:01;;;;;;;;;;;;;;;17.91;67.52;99134.50;2108799;28;20034;-48
2022/11/09 04:24:03;;;;;;;;;;;;;;;17.91;67.38;99135.31;2108397;27;19934;-51
2022/11/09 04:25:05;;;;;;;;;;;;;;;17.90;67.68;99139.03;2108477;28;19919;-49
2022/11/09 04:26:05;;;;;;;;;;;;;;;17.90;67.61;99128.31;2107538;28;19919;-50
2022/11/09 04:27:07;;;;;;;;;;;;;;;17.91;67.74;99139.88;2109277;28;19926;-51
2022/11/09 04:28:10;;;;;;;;;;;;;;;17.90;67.66;99133.69;2102025;28;19928;-53
2022/11/09 04:29:11;;;;;;;;;;;;;;;17.89;67.52;99132.03;2106312;28;21005;-50
2022/11/09 04:30:12;;;;;;;;;;;;;;;17.89;67.63;99132.03;2106716;28;19943;-52
2022/11/09 04:31:13;;;;;;;;;;;;;;;17.90;67.42;99138.22;2108211;28;20410;-51
2022/11/09 04:32:14;;;;;;;;;;;;;;;17.90;67.42;99140.91;2108815;27;19931;-52
2022/11/09 04:33:15;;;;;;;;;;;;;;;17.90;67.51;99125.63;2109748;28;20166;-53
2022/11/09 04:34:16;;;;;;;;;;;;;;;17.90;67.38;99128.31;2102600;28;19928;-48
2022/11/09 04:35:18;;;;;;;;;;;;;;;17.90;67.35;99125.63;2106548;28;19928;-52
2022/11/09 04:36:19;;;;;;;;;;;;;;;17.90;67.48;99136.34;2105136;28;19935;-52
2022/11/09 04:37:21;;;;;;;;;;;;;;;17.90;67.32;99128.31;2108138;28;19931;-48
2022/11/09 04:38:21;;;;;;;;;;;;;;;17.90;67.61;99125.63;2109522;28;19919;-49
2022/11/09 04:39:24;;;;;;;;;;;;;;;17.90;67.58;99125.63;2108779;28;19927;-47
2022/11/09 04:40:26;;;;;;;;;;;;;;;17.90;67.38;99127.47;2107587;28;19920;-48
2022/11/09 04:41:28;;;;;;;;;;;;;;;17.91;67.57;99129.13;2108327;28;19934;-49
2022/11/09 04:42:28;;;;;;;;;;;;;;;17.89;67.55;99126.66;2108559;28;19935;-51
2022/11/09 04:43:30;;;;;;;;;;;;;;;17.88;67.38;99127.66;2106802;28;19929;-47
2022/11/09 04:44:30;;;;;;;;;;;;;;;17.88;67.41;99124.97;2105244;28;19920;-52
2022/11/09 04:45:32;;;;;;;;;;;;;;;17.88;67.41;99124.16;2109316;28;19924;-52
2022/11/09 04:46:34;;;;;;;;;;;;;;;17.89;67.60;99121.28;2108197;28;19931;-53
2022/11/09 04:47:34;;;;;;;;;;;;;;;17.89;67.43;99126.66;2109766;28;20132;-47
2022/11/09 04:48:36;;;;;;;;;;;;;;;17.88;67.38;99130.34;2107466;28;19923;-54
2022/11/09 04:49:37;;;;;;;;;;;;;;;17.88;67.39;99130.34;2103421;28;20270;-50
2022/11/09 04:50:38;;;;;;;;;;;;;;;17.89;67.38;99125.84;2108824;28;19962;-49
2022/11/09 04:51:39;;;;;;;;;;;;;;;17.89;67.26;99121.28;2106464;28;19928;-53
2022/11/09 04:52:40;;;;;;;;;;;;;;;17.89;67.38;99120.47;2107915;28;19926;-49
2022/11/09 04:53:41;;;;;;;;;;;;;;;17.89;67.39;99125.84;2107558;28;19966;-48
2022/11/09 04:54:44;;;;;;;;;;;;;;;17.88;67.34;99122.28;2108105;28;19923;-49
2022/11/09 04:55:44;;;;;;;;;;;;;;;17.89;67.48;99125.84;2108611;28;19919;-50
2022/11/09 04:56:46;;;;;;;;;;;;;;;17.88;67.42;99127.66;2106220;28;20391;-50
2022/11/09 04:57:46;;;;;;;;;;;;;;;17.88;67.28;99130.34;2108758;28;19950;-50
2022/11/09 04:58:48;;;;;;;;;;;;;;;17.88;67.42;99130.34;2108733;28;19926;-50
2022/11/09 04:59:49;;;;;;;;;;;;;;;17.88;67.57;99130.34;2106884;28;20010;-51
2022/11/09 05:00:50;;;;;;;;;;;;;;;17.89;67.44;99126.66;2104974;28;19920;-54
2022/11/09 05:01:51;;;;;;;;;;;;;;;17.87;67.61;99123.31;2104464;28;20897;-50
2022/11/09 05:02:53;;;;;;;;;;;;;;;17.89;67.44;99125.84;2107778;28;19924;-51
2022/11/09 05:03:53;;;;;;;;;;;;;;;17.88;67.36;99133.03;2107687;28;20753;-52
2022/11/09 05:04:54;;;;;;;;;;;;;;;17.88;67.40;99116.09;2106832;28;19924;-54
2022/11/09 05:05:55;;;;;;;;;;;;;;;17.86;67.33;99125.16;2105030;28;19989;-52
2022/11/09 05:06:57;;;;;;;;;;;;;;;17.88;67.31;99118.78;2105696;28;20554;-54
2022/11/09 05:07:57;;;;;;;;;;;;;;;17.88;67.38;99124.97;2109123;28;20281;-52
2022/11/09 05:08:59;;;;;;;;;;;;;;;17.87;67.61;99115.28;2108699;28;19924;-52
2022/11/09 05:10:02;;;;;;;;;;;;;;;17.86;67.52;99121.66;2101588;28;19928;-51
2022/11/09 05:11:03;;;;;;;;;;;;;;;17.86;67.36;99114.44;2104963;28;19923;-50
2022/11/09 05:12:04;;;;;;;;;;;;;;;17.85;67.52;99115.44;2104717;28;19937;-53
2022/11/09 05:13:06;;;;;;;;;;;;;;;17.87;67.43;99115.28;2106287;28;20026;-49
2022/11/09 05:14:08;;;;;;;;;;;;;;;17.85;67.35;99112.75;2107327;28;19923;-47
2022/11/09 05:15:08;;;;;;;;;;;;;;;17.85;67.30;99120.81;2109083;28;19939;-54
2022/11/09 05:16:10;;;;;;;;;;;;;;;17.85;67.46;99120.81;2107930;28;19939;-52
2022/11/09 05:17:11;;;;;;;;;;;;;;;17.85;67.32;99114.63;2107987;28;19931;-49
2022/11/09 05:18:12;;;;;;;;;;;;;;;17.86;67.36;99118.97;2108630;28;19920;-51
2022/11/09 05:19:13;;;;;;;;;;;;;;;17.86;67.40;99121.66;2106107;28;19928;-47
2022/11/09 05:20:14;;;;;;;;;;;;;;;17.86;67.38;99122.50;2104421;28;19923;-50
2022/11/09 05:21:15;;;;;;;;;;;;;;;17.85;67.28;99118.13;2105897;28;19924;-51